sensor_id;sensor_type;location;lat;lon;timestamp;pressure;altitude;pressure_sealevel;temperature;humidity
28630;BME280;15817;42.130;24.762;2023-01-28T00:01:20;99127.47;;;4.25;100.00
28630;BME280;15817;42.130;24.762;2023-01-28T00:03:49;99127.47;;;4.23;100.00
28630;BME280;15817;42.130;24.762;2023-01-28T00:06:21;99123.91;;;4.20;100.00
28630;BME280;15817;42.130;24.762;2023-01-28T00:09:05;99130.94;;;4.19;100.00
28630;BME280;15817;42.130;24.762;2023-01-28T00:11:30;99127.44;;;4.22;100.00
28630;BME280;15817;42.130;24.762;2023-01-28T00:13:56;99134.44;;;4.20;100.00
28630;BME280;15817;42.130;24.762;2023-01-28T00:16:22;99134.47;;;4.21;100.00
28630;BME280;15817;42.130;24.762;2023-01-28T00:18:48;99126.53;;;4.18;100.00
28630;BME280;15817;42.130;24.762;2023-01-28T00:21:14;99125.66;;;4.15;100.00
28630;BME280;15817;42.130;24.762;2023-01-28T00:23:41;99131.78;;;4.14;100.00
28630;BME280;15817;42.130;24.762;2023-01-28T00:26:12;99152.03;;;4.22;100.00
28630;BME280;15817;42.130;24.762;2023-01-28T00:28:42;99137.97;;;4.20;100.00
28630;BME280;15817;42.130;24.762;2023-01-28T00:31:10;99142.31;;;4.17;100.00
28630;BME280;15817;42.130;24.762;2023-01-28T00:33:41;99142.31;;;4.15;100.00
28630;BME280;15817;42.130;24.762;2023-01-28T00:36:13;99147.53;;;4.11;100.00
28630;BME280;15817;42.130;24.762;2023-01-28T00:38:40;99154.56;;;4.12;100.00
28630;BME280;15817;42.130;24.762;2023-01-28T00:41:15;99153.66;;;4.10;100.00
28630;BME280;15817;42.130;24.762;2023-01-28T00:43:41;99173.91;;;4.15;100.00
28630;BME280;15817;42.130;24.762;2023-01-28T00:46:09;99167.72;;;4.12;100.00
28630;BME280;15817;42.130;24.762;2023-01-28T00:48:41;99176.47;;;4.11;100.00
28630;BME280;15817;42.130;24.762;2023-01-28T00:51:15;99176.44;;;4.08;100.00
28630;BME280;15817;42.130;24.762;2023-01-28T00:53:41;99181.72;;;4.09;100.00
28630;BME280;15817;42.130;24.762;2023-01-28T00:56:12;99175.56;;;4.09;100.00
28630;BME280;15817;42.130;24.762;2023-01-28T00:58:46;99169.41;;;4.05;100.00
28630;BME280;15817;42.130;24.762;2023-01-28T01:01:18;99187.91;;;4.14;100.00
28630;BME280;15817;42.130;24.762;2023-01-28T01:03:45;99178.16;;;4.04;100.00
28630;BME280;15817;42.130;24.762;2023-01-28T01:06:17;99182.56;;;4.04;100.00
28630;BME280;15817;42.130;24.762;2023-01-28T01:08:46;99176.41;;;4.05;100.00
28630;BME280;15817;42.130;24.762;2023-01-28T01:11:16;99189.66;;;4.12;100.00
28630;BME280;15817;42.130;24.762;2023-01-28T01:13:42;99181.72;;;4.08;100.00
28630;BME280;15817;42.130;24.762;2023-01-28T01:16:15;99189.63;;;4.11;100.00
28630;BME280;15817;42.130;24.762;2023-01-28T01:18:41;99190.53;;;4.11;100.00
28630;BME280;15817;42.130;24.762;2023-01-28T01:21:30;99178.19;;;4.06;100.00
28630;BME280;15817;42.130;24.762;2023-01-28T01:28:03;99174.66;;;4.05;100.00
28630;BME280;15817;42.130;24.762;2023-01-28T01:31:25;99197.56;;;4.12;100.00
28630;BME280;15817;42.130;24.762;2023-01-28T01:53:26;99208.00;;;4.03;100.00
28630;BME280;15817;42.130;24.762;2023-01-28T01:59:37;99208.88;;;4.02;100.00
28630;BME280;15817;42.130;24.762;2023-01-28T02:02:53;99222.91;;;4.07;100.00
28630;BME280;15817;42.130;24.762;2023-01-28T02:05:56;99213.25;;;4.05;100.00
28630;BME280;15817;42.130;24.762;2023-01-28T02:08:28;99214.13;;;4.02;100.00
28630;BME280;15817;42.130;24.762;2023-01-28T02:11:22;99210.63;;;4.03;100.00
28630;BME280;15817;42.130;24.762;2023-01-28T02:14:41;99237.91;;;4.14;100.00
28630;BME280;15817;42.130;24.762;2023-01-28T02:45:45;99245.69;;;4.05;100.00
28630;BME280;15817;42.130;24.762;2023-01-28T02:48:29;99246.59;;;4.06;100.00
28630;BME280;15817;42.130;24.762;2023-01-28T02:51:09;99250.13;;;4.08;100.00
28630;BME280;15817;42.130;24.762;2023-01-28T02:53:54;99252.78;;;4.09;99.73
28630;BME280;15817;42.130;24.762;2023-01-28T02:56:31;99259.78;;;4.09;99.67
28630;BME280;15817;42.130;24.762;2023-01-28T02:59:27;99243.94;;;4.03;99.66
28630;BME280;15817;42.130;24.762;2023-01-28T03:02:10;99263.31;;;4.11;98.86
28630;BME280;15817;42.130;24.762;2023-01-28T03:05:22;99256.25;;;4.07;99.61
28630;BME280;15817;42.130;24.762;2023-01-28T03:07:38;99258.91;;;4.08;99.51
28630;BME280;15817;42.130;24.762;2023-01-28T03:10:08;99252.72;;;4.03;98.99
28630;BME280;15817;42.130;24.762;2023-01-28T03:12:42;99265.94;;;4.11;98.72
28630;BME280;15817;42.130;24.762;2023-01-28T03:15:40;99252.72;;;4.03;98.92
28630;BME280;15817;42.130;24.762;2023-01-28T03:18:40;99252.72;;;4.03;97.29
28630;BME280;15817;42.130;24.762;2023-01-28T03:21:34;99270.31;;;4.09;97.61
28630;BME280;15817;42.130;24.762;2023-01-28T03:24:31;99269.47;;;4.11;97.51
28630;BME280;15817;42.130;24.762;2023-01-28T03:27:41;99258.84;;;4.02;97.64
28630;BME280;15817;42.130;24.762;2023-01-28T03:30:37;99253.59;;;4.04;98.05
28630;BME280;15817;42.130;24.762;2023-01-28T03:33:37;99272.91;;;4.07;98.01
28630;BME280;15817;42.130;24.762;2023-01-28T03:36:28;99264.97;;;4.04;97.63
28630;BME280;15817;42.130;24.762;2023-01-28T03:39:38;99271.13;;;4.05;97.33
28630;BME280;15817;42.130;24.762;2023-01-28T03:42:08;99271.13;;;4.02;97.05
28630;BME280;15817;42.130;24.762;2023-01-28T03:44:40;99282.56;;;4.08;97.08
28630;BME280;15817;42.130;24.762;2023-01-28T03:47:21;99274.66;;;4.04;97.20
28630;BME280;15817;42.130;24.762;2023-01-28T03:49:50;99267.59;;;3.99;97.02
28630;BME280;15817;42.130;24.762;2023-01-28T03:52:25;99274.59;;;3.99;97.05
28630;BME280;15817;42.130;24.762;2023-01-28T03:55:06;99284.28;;;4.02;97.52
28630;BME280;15817;42.130;24.762;2023-01-28T03:57:39;99282.47;;;3.97;97.15
28630;BME280;15817;42.130;24.762;2023-01-28T04:00:06;99294.78;;;4.02;96.92
28630;BME280;15817;42.130;24.762;2023-01-28T04:02:39;99286.88;;;4.00;96.84
28630;BME280;15817;42.130;24.762;2023-01-28T04:05:08;99296.53;;;3.99;97.02
28630;BME280;15817;42.130;24.762;2023-01-28T04:07:43;99285.03;;;3.91;96.87
28630;BME280;15817;42.130;24.762;2023-01-28T04:10:26;99292.09;;;3.97;96.86
28630;BME280;15817;42.130;24.762;2023-01-28T04:13:12;99289.44;;;3.95;97.28
28630;BME280;15817;42.130;24.762;2023-01-28T04:15:37;99280.63;;;3.89;97.14
28630;BME280;15817;42.130;24.762;2023-01-28T04:18:03;99290.28;;;3.90;97.23
28630;BME280;15817;42.130;24.762;2023-01-28T04:20:30;99300.03;;;4.00;97.53
28630;BME280;15817;42.130;24.762;2023-01-28T04:22:58;99285.06;;;3.94;97.68
28630;BME280;15817;42.130;24.762;2023-01-28T04:25:24;99288.53;;;3.93;97.60
28630;BME280;15817;42.130;24.762;2023-01-28T04:27:50;99303.47;;;3.94;97.49
28630;BME280;15817;42.130;24.762;2023-01-28T04:30:21;99290.25;;;3.88;97.54
28630;BME280;15817;42.130;24.762;2023-01-28T04:33:22;99299.94;;;3.94;97.69
28630;BME280;15817;42.130;24.762;2023-01-28T04:35:59;99299.91;;;3.88;96.57
28630;BME280;15817;42.130;24.762;2023-01-28T04:38:41;99300.78;;;3.88;97.61
28630;BME280;15817;42.130;24.762;2023-01-28T04:41:25;99303.38;;;3.87;97.51
28630;BME280;15817;42.130;24.762;2023-01-28T04:43:55;99309.56;;;3.89;97.81
28630;BME280;15817;42.130;24.762;2023-01-28T04:46:47;99294.56;;;3.80;97.87
28630;BME280;15817;42.130;24.762;2023-01-28T04:49:21;99302.44;;;3.80;97.44
28630;BME280;15817;42.130;24.762;2023-01-28T04:52:09;99320.00;;;3.84;97.95
28630;BME280;15817;42.130;24.762;2023-01-28T04:54:54;99323.47;;;3.82;98.13
28630;BME280;15817;42.130;24.762;2023-01-28T04:57:20;99333.19;;;3.86;98.05
28630;BME280;15817;42.130;24.762;2023-01-28T04:59:46;99326.97;;;3.81;98.11
28630;BME280;15817;42.130;24.762;2023-01-28T05:02:12;99341.97;;;3.86;98.27
28630;BME280;15817;42.130;24.762;2023-01-28T05:04:40;99333.09;;;3.78;98.42
28630;BME280;15817;42.130;24.762;2023-01-28T05:07:08;99341.88;;;3.79;97.73
28630;BME280;15817;42.130;24.762;2023-01-28T05:09:34;99347.16;;;3.82;98.04
28630;BME280;15817;42.130;24.762;2023-01-28T05:12:00;99342.75;;;3.81;97.73
28630;BME280;15817;42.130;24.762;2023-01-28T05:14:28;99353.31;;;3.84;97.10
28630;BME280;15817;42.130;24.762;2023-01-28T05:17:04;99358.63;;;3.87;97.50
28630;BME280;15817;42.130;24.762;2023-01-28T05:19:31;99358.59;;;3.85;97.44
28630;BME280;15817;42.130;24.762;2023-01-28T05:21:57;99343.63;;;3.78;97.70
28630;BME280;15817;42.130;24.762;2023-01-28T05:35:51;99362.13;;;3.87;96.92
28630;BME280;15817;42.130;24.762;2023-01-28T05:42:36;99378.84;;;3.92;97.72
28630;BME280;15817;42.130;24.762;2023-01-28T05:45:36;99368.28;;;3.88;98.14
28630;BME280;15817;42.130;24.762;2023-01-28T05:48:20;99388.47;;;3.89;97.92
28630;BME280;15817;42.130;24.762;2023-01-28T05:50:57;99388.47;;;3.89;98.41
28630;BME280;15817;42.130;24.762;2023-01-28T06:00:49;99391.03;;;3.84;98.36
28630;BME280;15817;42.130;24.762;2023-01-28T06:06:58;99407.72;;;3.86;97.79
28630;BME280;15817;42.130;24.762;2023-01-28T06:09:26;99413.03;;;3.89;98.15
28630;BME280;15817;42.130;24.762;2023-01-28T06:11:55;99415.66;;;3.89;98.05
28630;BME280;15817;42.130;24.762;2023-01-28T06:14:21;99414.75;;;3.87;98.68
28630;BME280;15817;42.130;24.762;2023-01-28T06:17:04;99433.28;;;3.96;98.11
28630;BME280;15817;42.130;24.762;2023-01-28T06:19:48;99426.19;;;3.89;97.92
28630;BME280;15817;42.130;24.762;2023-01-28T06:22:15;99422.66;;;3.89;98.16
28630;BME280;15817;42.130;24.762;2023-01-28T06:24:44;99440.22;;;3.93;98.78
28630;BME280;15817;42.130;24.762;2023-01-28T06:27:14;99441.97;;;3.92;98.56
28630;BME280;15817;42.130;24.762;2023-01-28T06:29:41;99446.41;;;3.95;98.87
28630;BME280;15817;42.130;24.762;2023-01-28T06:32:10;99453.50;;;3.99;99.03
28630;BME280;15817;42.130;24.762;2023-01-28T06:34:36;99440.22;;;3.90;99.44
28630;BME280;15817;42.130;24.762;2023-01-28T06:37:01;99455.19;;;3.95;99.17
28630;BME280;15817;42.130;24.762;2023-01-28T06:39:29;99454.34;;;3.98;99.70
28630;BME280;15817;42.130;24.762;2023-01-28T06:41:58;99458.69;;;3.96;99.14
28630;BME280;15817;42.130;24.762;2023-01-28T06:44:27;99451.66;;;3.95;99.56
28630;BME280;15817;42.130;24.762;2023-01-28T06:46:53;99459.53;;;3.93;99.89
28630;BME280;15817;42.130;24.762;2023-01-28T06:49:19;99483.38;;;4.03;99.37
28630;BME280;15817;42.130;24.762;2023-01-28T06:51:46;99468.41;;;4.00;100.00
28630;BME280;15817;42.130;24.762;2023-01-28T06:54:12;99477.22;;;4.05;100.00
28630;BME280;15817;42.130;24.762;2023-01-28T06:56:38;99481.63;;;4.06;100.00
28630;BME280;15817;42.130;24.762;2023-01-28T06:59:04;99481.63;;;4.06;100.00
28630;BME280;15817;42.130;24.762;2023-01-28T07:01:30;99480.78;;;4.07;100.00
28630;BME280;15817;42.130;24.762;2023-01-28T07:03:56;99475.44;;;4.01;99.83
28630;BME280;15817;42.130;24.762;2023-01-28T07:06:22;99479.88;;;4.07;100.00
28630;BME280;15817;42.130;24.762;2023-01-28T07:08:47;99490.41;;;4.07;100.00
28630;BME280;15817;42.130;24.762;2023-01-28T07:11:14;99482.53;;;4.07;100.00
28630;BME280;15817;42.130;24.762;2023-01-28T07:13:40;99485.16;;;4.07;100.00
28630;BME280;15817;42.130;24.762;2023-01-28T07:16:16;99500.22;;;4.15;100.00
28630;BME280;15817;42.130;24.762;2023-01-28T07:18:45;99491.41;;;4.13;100.00
28630;BME280;15817;42.130;24.762;2023-01-28T07:21:36;99482.59;;;4.11;100.00
28630;BME280;15817;42.130;24.762;2023-01-28T07:24:05;99490.50;;;4.11;100.00
28630;BME280;15817;42.130;24.762;2023-01-28T07:26:37;99500.22;;;4.18;100.00
28630;BME280;15817;42.130;24.762;2023-01-28T07:29:11;99498.47;;;4.17;100.00
28630;BME280;15817;42.130;24.762;2023-01-28T07:31:46;99509.91;;;4.19;99.30
28630;BME280;15817;42.130;24.762;2023-01-28T07:34:15;99503.69;;;4.16;99.56
28630;BME280;15817;42.130;24.762;2023-01-28T07:36:41;99502.00;;;4.19;99.42
28630;BME280;15817;42.130;24.762;2023-01-28T07:39:30;99504.63;;;4.19;98.88
28630;BME280;15817;42.130;24.762;2023-01-28T07:41:59;99533.69;;;4.27;98.66
28630;BME280;15817;42.130;24.762;2023-01-28T07:44:31;99524.06;;;4.29;98.09
28630;BME280;15817;42.130;24.762;2023-01-28T07:46:59;99529.28;;;4.27;96.91
28630;BME280;15817;42.130;24.762;2023-01-28T07:49:25;99524.91;;;4.28;97.16
28630;BME280;15817;42.130;24.762;2023-01-28T07:51:54;99532.03;;;4.33;96.98
28630;BME280;15817;42.130;24.762;2023-01-28T07:54:22;99517.13;;;4.34;96.95
28630;BME280;15817;42.130;24.762;2023-01-28T07:56:58;99532.13;;;4.41;97.16
28630;BME280;15817;42.130;24.762;2023-01-28T07:59:29;99518.94;;;4.40;96.75
28630;BME280;15817;42.130;24.762;2023-01-28T08:01:58;99527.84;;;4.48;96.07
28630;BME280;15817;42.130;24.762;2023-01-28T08:04:28;99522.56;;;4.48;95.82
28630;BME280;15817;42.130;24.762;2023-01-28T08:07:05;99526.13;;;4.53;95.41
28630;BME280;15817;42.130;24.762;2023-01-28T08:09:33;99527.09;;;4.58;95.61
28630;BME280;15817;42.130;24.762;2023-01-28T08:12:03;99530.66;;;4.61;95.61
28630;BME280;15817;42.130;24.762;2023-01-28T08:14:37;99529.81;;;4.65;95.78
28630;BME280;15817;42.130;24.762;2023-01-28T08:17:15;99543.00;;;4.68;95.32
28630;BME280;15817;42.130;24.762;2023-01-28T08:19:59;99553.66;;;4.78;96.08
28630;BME280;15817;42.130;24.762;2023-01-28T08:23:04;99554.66;;;4.87;95.61
28630;BME280;15817;42.130;24.762;2023-01-28T08:25:36;99554.59;;;4.83;95.04
28630;BME280;15817;42.130;24.762;2023-01-28T08:28:03;99556.41;;;4.88;95.45
28630;BME280;15817;42.130;24.762;2023-01-28T08:30:29;99557.34;;;4.92;93.52
28630;BME280;15817;42.130;24.762;2023-01-28T08:32:56;99568.81;;;4.97;92.34
28630;BME280;15817;42.130;24.762;2023-01-28T08:35:26;99572.31;;;4.97;91.88
28630;BME280;15817;42.130;24.762;2023-01-28T08:37:52;99573.22;;;4.98;91.99
28630;BME280;15817;42.130;24.762;2023-01-28T08:40:18;99590.03;;;5.06;91.22
28630;BME280;15817;42.130;24.762;2023-01-28T08:42:51;99568.88;;;5.01;90.74
28630;BME280;15817;42.130;24.762;2023-01-28T08:45:21;99575.13;;;5.11;91.87
28630;BME280;15817;42.130;24.762;2023-01-28T08:47:55;99581.34;;;5.16;91.27
28630;BME280;15817;42.130;24.762;2023-01-28T08:50:29;99576.97;;;5.20;92.01
28630;BME280;15817;42.130;24.762;2023-01-28T08:53:03;99574.41;;;5.26;92.07
28630;BME280;15817;42.130;24.762;2023-01-28T08:55:53;99572.69;;;5.31;92.74
28630;BME280;15817;42.130;24.762;2023-01-28T08:58:19;99584.25;;;5.40;92.15
28630;BME280;15817;42.130;24.762;2023-01-28T09:00:45;99580.69;;;5.37;90.87
28630;BME280;15817;42.130;24.762;2023-01-28T09:03:20;99578.97;;;5.40;91.07
28630;BME280;15817;42.130;24.762;2023-01-28T09:06:00;99582.50;;;5.41;90.08
28630;BME280;15817;42.130;24.762;2023-01-28T09:09:00;99591.22;;;5.37;88.77
28630;BME280;15817;42.130;24.762;2023-01-28T09:11:27;99598.31;;;5.44;88.91
28630;BME280;15817;42.130;24.762;2023-01-28T09:13:55;99600.97;;;5.45;88.51
28630;BME280;15817;42.130;24.762;2023-01-28T09:16:21;99587.81;;;5.47;88.05
28630;BME280;15817;42.130;24.762;2023-01-28T09:18:50;99585.22;;;5.52;87.80
28630;BME280;15817;42.130;24.762;2023-01-28T09:21:16;99593.22;;;5.59;86.58
28630;BME280;15817;42.130;24.762;2023-01-28T09:23:42;99594.16;;;5.64;86.29
28630;BME280;15817;42.130;24.762;2023-01-28T09:26:08;99588.03;;;5.71;87.09
28630;BME280;15817;42.130;24.762;2023-01-28T09:28:34;99596.00;;;5.77;86.52
28630;BME280;15817;42.130;24.762;2023-01-28T09:31:08;99587.19;;;5.74;86.51
28630;BME280;15817;42.130;24.762;2023-01-28T09:33:43;99576.63;;;5.72;86.10
28630;BME280;15817;42.130;24.762;2023-01-28T09:36:12;99594.31;;;5.84;85.66
28630;BME280;15817;42.130;24.762;2023-01-28T09:38:38;99587.19;;;5.77;85.10
28630;BME280;15817;42.130;24.762;2023-01-28T09:41:27;99596.16;;;5.91;85.65
28630;BME280;15817;42.130;24.762;2023-01-28T09:44:06;99587.34;;;5.91;85.29
28630;BME280;15817;42.130;24.762;2023-01-28T09:46:38;99596.13;;;5.90;85.09
28630;BME280;15817;42.130;24.762;2023-01-28T09:49:42;99590.88;;;5.88;85.00
28630;BME280;15817;42.130;24.762;2023-01-28T09:52:17;99593.53;;;5.91;84.80
28630;BME280;15817;42.130;24.762;2023-01-28T09:54:55;99595.34;;;5.98;84.70
28630;BME280;15817;42.130;24.762;2023-01-28T09:57:35;99586.56;;;6.02;85.77
28630;BME280;15817;42.130;24.762;2023-01-28T10:00:08;99586.63;;;6.08;85.37
28630;BME280;15817;42.130;24.762;2023-01-28T10:03:32;99597.22;;;6.10;84.49
28630;BME280;15817;42.130;24.762;2023-01-28T10:19:26;99575.22;;;6.11;85.35
28630;BME280;15817;42.130;24.762;2023-01-28T10:21:59;99573.44;;;6.08;84.98
28630;BME280;15817;42.130;24.762;2023-01-28T10:26:56;99584.03;;;6.14;84.68
28630;BME280;15817;42.130;24.762;2023-01-28T10:29:26;99578.75;;;6.11;84.61
28630;BME280;15817;42.130;24.762;2023-01-28T10:35:01;99576.97;;;6.10;84.78
28630;BME280;15817;42.130;24.762;2023-01-28T10:37:32;99582.28;;;6.16;85.14
28630;BME280;15817;42.130;24.762;2023-01-28T10:39:59;99593.75;;;6.18;85.41
28630;BME280;15817;42.130;24.762;2023-01-28T10:42:35;99597.28;;;6.25;84.50
28630;BME280;15817;42.130;24.762;2023-01-28T10:45:18;99584.97;;;6.24;85.22
28630;BME280;15817;42.130;24.762;2023-01-28T10:48:01;99595.59;;;6.33;85.29
28630;BME280;15817;42.130;24.762;2023-01-28T10:50:32;99586.81;;;6.34;85.58
28630;BME280;15817;42.130;24.762;2023-01-28T10:53:04;99585.91;;;6.32;84.80
28630;BME280;15817;42.130;24.762;2023-01-28T10:55:48;99587.66;;;6.32;85.63
28630;BME280;15817;42.130;24.762;2023-01-28T10:58:24;99577.91;;;6.23;85.40
28630;BME280;15817;42.130;24.762;2023-01-28T11:00:59;99572.66;;;6.25;86.01
28630;BME280;15817;42.130;24.762;2023-01-28T11:03:27;99576.16;;;6.25;86.50
28630;BME280;15817;42.130;24.762;2023-01-28T11:05:57;99581.44;;;6.21;86.19
28630;BME280;15817;42.130;24.762;2023-01-28T11:08:27;99584.94;;;6.18;86.35
28630;BME280;15817;42.130;24.762;2023-01-28T11:10:55;99575.25;;;6.17;86.13
28630;BME280;15817;42.130;24.762;2023-01-28T11:13:30;99583.19;;;6.20;87.00
28630;BME280;15817;42.130;24.762;2023-01-28T11:16:02;99587.66;;;6.32;87.22
28630;BME280;15817;42.130;24.762;2023-01-28T11:19:01;99578.00;;;6.34;87.08
28630;BME280;15817;42.130;24.762;2023-01-28T11:21:30;99578.06;;;6.43;87.61
28630;BME280;15817;42.130;24.762;2023-01-28T11:24:03;99573.69;;;6.45;87.64
28630;BME280;15817;42.130;24.762;2023-01-28T11:26:35;99582.56;;;6.58;86.86
28630;BME280;15817;42.130;24.762;2023-01-28T11:29:03;99581.66;;;6.62;86.55
28630;BME280;15817;42.130;24.762;2023-01-28T11:31:37;99579.00;;;6.59;85.61
28630;BME280;15817;42.130;24.762;2023-01-28T11:34:15;99582.53;;;6.56;84.87
28630;BME280;15817;42.130;24.762;2023-01-28T11:36:51;99577.22;;;6.53;85.71
28630;BME280;15817;42.130;24.762;2023-01-28T11:39:27;99586.03;;;6.58;85.51
28630;BME280;15817;42.130;24.762;2023-01-28T11:42:29;99579.03;;;6.57;86.17
28630;BME280;15817;42.130;24.762;2023-01-28T11:44:55;99585.16;;;6.59;85.63
28630;BME280;15817;42.130;24.762;2023-01-28T11:51:21;99593.19;;;6.76;86.38
28630;BME280;15817;42.130;24.762;2023-01-28T11:57:06;99596.75;;;6.78;86.16
28630;BME280;15817;42.130;24.762;2023-01-28T12:00:04;99594.09;;;6.78;86.29
28630;BME280;15817;42.130;24.762;2023-01-28T12:02:38;99595.78;;;6.70;85.30
28630;BME280;15817;42.130;24.762;2023-01-28T12:05:14;99600.22;;;6.68;85.55
28630;BME280;15817;42.130;24.762;2023-01-28T12:14:11;99601.91;;;6.53;86.96
28630;BME280;15817;42.130;24.762;2023-01-28T12:25:38;99615.13;;;6.60;88.02
28630;BME280;15817;42.130;24.762;2023-01-28T12:31:43;99610.66;;;6.49;87.76
28630;BME280;15817;42.130;24.762;2023-01-28T12:35:09;99606.16;;;6.35;87.24
28630;BME280;15817;42.130;24.762;2023-01-28T12:43:51;99615.81;;;6.28;89.14
28630;BME280;15817;42.130;24.762;2023-01-28T12:46:41;99612.25;;;6.25;89.90
28630;BME280;15817;42.130;24.762;2023-01-28T12:49:17;99620.22;;;6.29;90.26
28630;BME280;15817;42.130;24.762;2023-01-28T12:54:28;99632.50;;;6.24;90.72
28630;BME280;15817;42.130;24.762;2023-01-28T12:56:55;99634.25;;;6.22;90.83
28630;BME280;15817;42.130;24.762;2023-01-28T12:59:39;99637.75;;;6.20;90.97
28630;BME280;15817;42.130;24.762;2023-01-28T13:07:47;99645.66;;;6.16;91.05
28630;BME280;15817;42.130;24.762;2023-01-28T13:10:36;99625.25;;;6.00;90.43
28630;BME280;15817;42.130;24.762;2023-01-28T13:13:05;99659.66;;;6.06;91.49
28630;BME280;15817;42.130;24.762;2023-01-28T13:15:39;99641.97;;;5.96;92.22
28630;BME280;15817;42.130;24.762;2023-01-28T13:21:11;99640.22;;;5.97;92.24
28630;BME280;15817;42.130;24.762;2023-01-28T13:23:43;99652.56;;;5.99;92.59
28630;BME280;15817;42.130;24.762;2023-01-28T13:29:17;99658.69;;;5.97;92.71
28630;BME280;15817;42.130;24.762;2023-01-28T13:31:46;99651.56;;;5.88;92.05
28630;BME280;15817;42.130;24.762;2023-01-28T13:34:32;99656.75;;;5.83;92.46
28630;BME280;15817;42.130;24.762;2023-01-28T13:37:14;99669.09;;;5.85;93.16
28630;BME280;15817;42.130;24.762;2023-01-28T13:39:48;99676.19;;;5.89;93.75
28630;BME280;15817;42.130;24.762;2023-01-28T13:42:24;99669.91;;;5.79;93.95
28630;BME280;15817;42.130;24.762;2023-01-28T13:44:53;99671.66;;;5.75;94.21
28630;BME280;15817;42.130;24.762;2023-01-28T13:47:32;99671.59;;;5.72;94.44
28630;BME280;15817;42.130;24.762;2023-01-28T13:50:12;99684.84;;;5.75;95.55
28630;BME280;15817;42.130;24.762;2023-01-28T13:55:36;99678.53;;;5.63;96.71
28630;BME280;15817;42.130;24.762;2023-01-28T14:04:13;99710.28;;;5.72;98.42
28630;BME280;15817;42.130;24.762;2023-01-28T14:13:10;99695.03;;;5.45;100.00
28630;BME280;15817;42.130;24.762;2023-01-28T14:18:04;99699.53;;;5.52;100.00
28630;BME280;15817;42.130;24.762;2023-01-28T14:21:07;99711.84;;;5.52;100.00
28630;BME280;15817;42.130;24.762;2023-01-28T14:23:36;99693.25;;;5.41;100.00
28630;BME280;15817;42.130;24.762;2023-01-28T14:33:39;99710.00;;;5.46;100.00
28630;BME280;15817;42.130;24.762;2023-01-28T14:36:15;99715.28;;;5.47;100.00
28630;BME280;15817;42.130;24.762;2023-01-28T14:38:43;99727.59;;;5.47;100.00
28630;BME280;15817;42.130;24.762;2023-01-28T14:41:20;99703.75;;;5.38;100.00
28630;BME280;15817;42.130;24.762;2023-01-28T14:43:53;99724.88;;;5.39;100.00
28630;BME280;15817;42.130;24.762;2023-01-28T14:46:46;99729.31;;;5.45;100.00
28630;BME280;15817;42.130;24.762;2023-01-28T14:49:34;99739.03;;;5.47;100.00
28630;BME280;15817;42.130;24.762;2023-01-28T14:52:47;99736.41;;;5.49;100.00
28630;BME280;15817;42.130;24.762;2023-01-28T14:55:47;99747.88;;;5.51;100.00
28630;BME280;15817;42.130;24.762;2023-01-28T14:59:03;99735.44;;;5.42;100.00
28630;BME280;15817;42.130;24.762;2023-01-28T15:01:46;99744.25;;;5.44;100.00
28630;BME280;15817;42.130;24.762;2023-01-28T15:04:24;99752.16;;;5.43;100.00
28630;BME280;15817;42.130;24.762;2023-01-28T15:06:50;99750.47;;;5.48;100.00
28630;BME280;15817;42.130;24.762;2023-01-28T15:09:22;99752.16;;;5.44;100.00
28630;BME280;15817;42.130;24.762;2023-01-28T15:11:50;99754.00;;;5.49;100.00
28630;BME280;15817;42.130;24.762;2023-01-28T15:14:26;99748.63;;;5.42;100.00
28630;BME280;15817;42.130;24.762;2023-01-28T15:16:59;99751.31;;;5.47;100.00
28630;BME280;15817;42.130;24.762;2023-01-28T15:19:29;99757.47;;;5.46;100.00
28630;BME280;15817;42.130;24.762;2023-01-28T15:22:14;99755.75;;;5.48;100.00
28630;BME280;15817;42.130;24.762;2023-01-28T15:24:41;99761.06;;;5.51;100.00
28630;BME280;15817;42.130;24.762;2023-01-28T15:27:52;99777.78;;;5.55;100.00
28630;BME280;15817;42.130;24.762;2023-01-28T15:30:35;99767.16;;;5.47;100.00
28630;BME280;15817;42.130;24.762;2023-01-28T15:33:13;99762.75;;;5.46;100.00
28630;BME280;15817;42.130;24.762;2023-01-28T15:36:08;99783.88;;;5.49;99.28
28630;BME280;15817;42.130;24.762;2023-01-28T15:38:45;99775.91;;;5.41;99.48
28630;BME280;15817;42.130;24.762;2023-01-28T15:41:11;99783.84;;;5.46;100.00
28630;BME280;15817;42.130;24.762;2023-01-28T15:46:40;99780.28;;;5.44;99.66
28630;BME280;15817;42.130;24.762;2023-01-28T15:52:20;99793.44;;;5.42;98.54
28630;BME280;15817;42.130;24.762;2023-01-28T15:57:56;99798.69;;;5.38;98.70
28630;BME280;15817;42.130;24.762;2023-01-28T16:00:30;99803.16;;;5.42;98.90
28630;BME280;15817;42.130;24.762;2023-01-28T16:03:07;99806.56;;;5.36;98.51
28630;BME280;15817;42.130;24.762;2023-01-28T16:12:36;99823.28;;;5.37;97.75
28630;BME280;15817;42.130;24.762;2023-01-28T16:15:19;99825.84;;;5.32;97.29
28630;BME280;15817;42.130;24.762;2023-01-28T16:17:50;99818.78;;;5.31;97.40
28630;BME280;15817;42.130;24.762;2023-01-28T16:20:35;99829.41;;;5.36;98.30
28630;BME280;15817;42.130;24.762;2023-01-28T16:23:20;99831.16;;;5.35;98.36
28630;BME280;15817;42.130;24.762;2023-01-28T16:26:17;99837.34;;;5.37;98.43
28630;BME280;15817;42.130;24.762;2023-01-28T16:29:12;99842.63;;;5.37;98.46
28630;BME280;15817;42.130;24.762;2023-01-28T16:31:44;99841.63;;;5.31;98.78
28630;BME280;15817;42.130;24.762;2023-01-28T16:34:13;99843.38;;;5.27;98.30
28630;BME280;15817;42.130;24.762;2023-01-28T16:40:08;99845.97;;;5.26;98.94
28630;BME280;15817;42.130;24.762;2023-01-28T16:42:46;99851.31;;;5.32;99.70
28630;BME280;15817;42.130;24.762;2023-01-28T16:45:21;99853.06;;;5.28;99.15
28630;BME280;15817;42.130;24.762;2023-01-28T16:47:50;99856.44;;;5.21;98.67
28630;BME280;15817;42.130;24.762;2023-01-28T16:50:20;99851.25;;;5.26;99.78
28630;BME280;15817;42.130;24.762;2023-01-28T16:53:09;99868.84;;;5.27;99.88
28630;BME280;15817;42.130;24.762;2023-01-28T16:55:53;99858.31;;;5.27;100.00